createdAt,value
2022-11-15T00:01:28.669Z,100411.94
2022-11-15T00:03:55.176Z,100407.94
2022-11-15T00:06:21.826Z,100412.41
2022-11-15T00:08:48.383Z,100409.50
2022-11-15T00:11:15.011Z,100413.81
2022-11-15T00:13:41.663Z,100420.91
2022-11-15T00:16:09.894Z,100412.53
2022-11-15T00:18:36.398Z,100413.44
2022-11-15T00:21:09.122Z,100410.72
2022-11-15T00:23:35.844Z,100406.03
2022-11-15T00:26:02.779Z,100412.06
2022-11-15T00:28:29.317Z,100404.28
2022-11-15T00:31:02.036Z,100406.81
2022-11-15T00:33:28.888Z,100405.78
2022-11-15T00:36:05.477Z,100400.09
2022-11-15T00:38:36.325Z,100404.28
2022-11-15T00:41:09.045Z,100396.13
2022-11-15T00:43:36.069Z,100394.81
2022-11-15T00:46:03.323Z,100393.72
2022-11-15T00:48:30.337Z,100399.75
2022-11-15T00:50:56.873Z,100392.63
2022-11-15T00:53:23.418Z,100389.50
2022-11-15T00:55:49.938Z,100390.84
2022-11-15T00:58:22.527Z,100386.25
2022-11-15T01:00:50.283Z,100390.88
2022-11-15T01:03:16.916Z,100389.00
2022-11-15T01:05:43.564Z,100388.09
2022-11-15T01:08:17.638Z,100378.16
2022-11-15T01:25:19.627Z,100363.22
2022-11-15T01:28:01.361Z,100354.56
2022-11-15T01:30:28.169Z,100352.53
2022-11-15T01:32:54.714Z,100353.38
2022-11-15T01:35:21.839Z,100350.25
2022-11-15T01:37:48.361Z,100355.41
2022-11-15T01:40:15.277Z,100353.13
2022-11-15T01:45:30.407Z,100356.22
2022-11-15T01:47:57.034Z,100355.72
2022-11-15T01:50:30.671Z,100358.63
2022-11-15T01:56:42.203Z,100344.28
2022-11-15T01:59:10.696Z,100349.72
2022-11-15T02:01:37.891Z,100344.03
2022-11-15T02:04:27.123Z,100341.97
2022-11-15T02:06:54.280Z,100345.22
2022-11-15T02:09:21.051Z,100348.25
2022-11-15T02:12:02.688Z,100339.38
2022-11-15T02:14:30.933Z,100332.94
2022-11-15T02:19:42.371Z,100327.56
2022-11-15T02:25:28.120Z,100323.34
2022-11-15T02:28:14.368Z,100314.66
2022-11-15T02:30:58.263Z,100310.84
2022-11-15T02:33:50.215Z,100297.53
2022-11-15T02:36:36.414Z,100300.03
2022-11-15T02:39:41.314Z,100308.16
2022-11-15T02:50:05.433Z,100306.56
2022-11-15T02:56:00.272Z,100307.91
2022-11-15T02:58:53.546Z,100318.63
2022-11-15T03:01:40.859Z,100315.81
2022-11-15T03:04:29.187Z,100315.50
2022-11-15T03:07:08.533Z,100306.81
2022-11-15T03:10:11.753Z,100311.22
2022-11-15T03:28:43.446Z,100300.19
2022-11-15T03:31:32.533Z,100280.63
2022-11-15T03:34:01.169Z,100278.34
2022-11-15T03:36:28.248Z,100286.50
2022-11-15T03:39:00.838Z,100289.59
2022-11-15T03:41:37.130Z,100284.94
2022-11-15T03:44:31.527Z,100277.28
2022-11-15T03:47:10.957Z,100267.47
2022-11-15T03:49:44.057Z,100261.09
2022-11-15T03:52:12.017Z,100248.91
2022-11-15T03:54:49.183Z,100243.50
2022-11-15T03:57:34.242Z,100247.31
2022-11-15T04:00:00.870Z,100254.47
2022-11-15T04:02:27.452Z,100244.03
2022-11-15T04:04:53.981Z,100243.44
2022-11-15T04:08:07.238Z,100242.84
2022-11-15T04:10:52.764Z,100242.41
2022-11-15T04:18:29.817Z,100253.56
2022-11-15T04:21:14.914Z,100245.69
2022-11-15T04:39:49.355Z,100223.56
2022-11-15T04:48:07.394Z,100214.78
2022-11-15T04:50:33.940Z,100211.06
2022-11-15T04:53:00.634Z,100217.75
2022-11-15T04:55:27.301Z,100217.44
2022-11-15T04:58:01.139Z,100216.50
2022-11-15T05:00:29.443Z,100211.41
2022-11-15T05:03:15.717Z,100216.87
2022-11-15T05:05:42.833Z,100219.09
2022-11-15T05:08:09.378Z,100212.53
2022-11-15T05:10:57.677Z,100219.06
2022-11-15T05:13:24.234Z,100216.97
2022-11-15T05:15:51.024Z,100227.25
2022-11-15T05:18:23.283Z,100229.66
2022-11-15T05:21:51.948Z,100229.75
2022-11-15T05:24:56.411Z,100224.72
2022-11-15T05:27:23.481Z,100227.66
2022-11-15T05:37:55.590Z,100219.44
2022-11-15T05:40:22.537Z,100217.03
2022-11-15T05:42:49.311Z,100212.44
2022-11-15T05:45:16.340Z,100211.59
2022-11-15T05:47:43.577Z,100222.75
2022-11-15T05:50:15.005Z,100206.31
2022-11-15T05:52:42.100Z,100224.25
2022-11-15T05:55:09.906Z,100224.03
2022-11-15T05:57:36.897Z,100223.66
2022-11-15T06:00:05.283Z,100210.28
2022-11-15T06:02:32.100Z,100207.13
2022-11-15T06:04:58.994Z,100197.94
2022-11-15T06:07:25.787Z,100199.56
2022-11-15T06:09:52.428Z,100193.00
2022-11-15T06:12:18.960Z,100199.06
2022-11-15T06:14:45.488Z,100199.28
2022-11-15T06:17:12.027Z,100197.38
2022-11-15T06:19:38.620Z,100209.69
2022-11-15T06:22:05.359Z,100204.38
2022-11-15T06:24:31.953Z,100210.09
2022-11-15T06:26:58.695Z,100202.78
2022-11-15T06:29:25.446Z,100202.47
2022-11-15T06:31:51.998Z,100199.25
2022-11-15T06:34:18.705Z,100207.91
2022-11-15T06:39:33.538Z,100208.94
2022-11-15T06:42:00.073Z,100206.44
2022-11-15T06:44:26.597Z,100210.66
2022-11-15T06:46:53.396Z,100217.44
2022-11-15T06:49:19.954Z,100207.19
2022-11-15T06:51:46.561Z,100214.03
2022-11-15T06:54:13.169Z,100222.59
2022-11-15T06:56:39.707Z,100220.72
2022-11-15T06:59:06.363Z,100230.09
2022-11-15T07:01:32.983Z,100222.09
2022-11-15T07:06:41.578Z,100207.72
2022-11-15T07:09:08.102Z,100211.66
2022-11-15T07:11:34.663Z,100205.59
2022-11-15T07:14:01.498Z,100210.53
2022-11-15T07:16:28.064Z,100203.09
2022-11-15T07:18:54.768Z,100199.16
2022-11-15T07:21:26.248Z,100195.00
2022-11-15T07:23:54.143Z,100198.31
2022-11-15T07:26:21.804Z,100205.28
2022-11-15T07:28:48.510Z,100191.31
2022-11-15T07:33:56.517Z,100184.44
2022-11-15T07:36:23.090Z,100187.97
2022-11-15T07:44:00.146Z,100193.66
2022-11-15T07:46:26.736Z,100212.19
2022-11-15T07:48:53.288Z,100212.81
2022-11-15T07:51:57.406Z,100202.66
2022-11-15T07:54:37.215Z,100195.81
2022-11-15T07:57:07.584Z,100200.31
2022-11-15T07:59:35.706Z,100189.09
2022-11-15T08:02:02.892Z,100189.84
2022-11-15T08:04:29.540Z,100205.63
2022-11-15T08:06:56.516Z,100199.69
2022-11-15T08:09:23.100Z,100196.94
2022-11-15T08:11:49.656Z,100192.66
2022-11-15T08:14:16.186Z,100189.28
2022-11-15T08:16:42.773Z,100168.94
2022-11-15T08:19:09.272Z,100166.44
2022-11-15T08:21:36.213Z,100164.88
2022-11-15T08:24:02.731Z,100175.97
2022-11-15T08:26:31.023Z,100171.22
2022-11-15T08:28:57.819Z,100169.41
2022-11-15T08:31:24.435Z,100169.84
2022-11-15T08:33:51.070Z,100170.78
2022-11-15T08:36:21.146Z,100168.41
2022-11-15T08:38:49.815Z,100159.75
2022-11-15T08:41:27.663Z,100160.03
2022-11-15T08:43:54.228Z,100157.47
2022-11-15T08:46:20.751Z,100150.69
2022-11-15T08:48:47.379Z,100142.78
2022-11-15T08:51:51.515Z,100135.91
2022-11-15T08:54:38.207Z,100144.25
2022-11-15T08:57:04.766Z,100142.22
2022-11-15T08:59:31.855Z,100144.81
2022-11-15T09:01:58.569Z,100137.47
2022-11-15T09:04:25.676Z,100130.59
2022-11-15T09:06:52.365Z,100130.59
2022-11-15T09:09:18.904Z,100123.53
2022-11-15T09:11:45.510Z,100118.25
2022-11-15T09:14:13.576Z,100126.44
2022-11-15T09:16:40.262Z,100131.13
2022-11-15T09:19:11.646Z,100130.88
2022-11-15T09:21:38.598Z,100127.56
2022-11-15T09:24:08.116Z,100130.00
2022-11-15T09:26:34.633Z,100125.97
2022-11-15T09:29:02.564Z,100119.34
2022-11-15T09:31:30.468Z,100109.44
2022-11-15T09:33:57.017Z,100118.09
2022-11-15T09:36:23.621Z,100119.56
2022-11-15T09:41:44.094Z,100124.94
2022-11-15T09:44:21.134Z,100113.97
2022-11-15T09:47:00.006Z,100118.91
2022-11-15T09:49:26.968Z,100118.31
2022-11-15T09:55:22.419Z,100113.75
2022-11-15T09:57:58.523Z,100111.84
2022-11-15T10:00:47.204Z,100107.12
2022-11-15T10:03:28.528Z,100101.47
2022-11-15T10:05:59.067Z,100101.19
2022-11-15T10:08:35.810Z,100105.56
2022-11-15T10:13:57.296Z,100076.06
2022-11-15T10:16:47.399Z,100084.31
2022-11-15T10:19:22.979Z,100091.66
2022-11-15T10:22:06.955Z,100081.56
2022-11-15T10:24:42.932Z,100079.94
2022-11-15T10:27:15.710Z,100074.44
2022-11-15T10:29:45.579Z,100069.00
2022-11-15T10:32:14.258Z,100071.16
2022-11-15T10:34:41.276Z,100058.03
2022-11-15T10:37:07.805Z,100052.00
2022-11-15T10:39:34.833Z,100056.12
2022-11-15T10:42:30.071Z,100047.75
2022-11-15T10:44:56.600Z,100053.94
2022-11-15T10:47:29.026Z,100051.41
2022-11-15T10:50:32.644Z,100045.66
2022-11-15T10:53:01.624Z,100042.41
2022-11-15T10:55:32.059Z,100036.28
2022-11-15T10:58:06.745Z,100029.16
2022-11-15T11:00:37.869Z,100023.13
2022-11-15T11:03:21.703Z,100019.13
2022-11-15T11:05:48.243Z,100017.84
2022-11-15T11:08:14.718Z,100010.37
2022-11-15T11:10:58.591Z,100010.94
2022-11-15T11:13:39.992Z,100014.09
2022-11-15T11:16:06.448Z,99999.84
2022-11-15T11:18:39.960Z,99996.03
2022-11-15T11:21:14.341Z,99994.97
2022-11-15T11:23:56.364Z,100007.69
2022-11-15T11:26:32.900Z,99988.78
2022-11-15T11:29:14.479Z,99995.22
2022-11-15T11:31:57.042Z,99980.94
2022-11-15T11:34:47.926Z,99985.25
2022-11-15T11:37:36.631Z,100004.06
2022-11-15T11:40:10.874Z,99990.97
2022-11-15T11:42:43.472Z,99976.25
2022-11-15T11:45:37.530Z,99975.63
2022-11-15T11:48:14.795Z,99979.53
2022-11-15T11:50:45.639Z,99979.53
2022-11-15T11:53:12.238Z,99967.03
2022-11-15T12:00:18.751Z,99959.34
2022-11-15T12:02:57.197Z,99955.75
2022-11-15T12:05:32.751Z,99952.16
2022-11-15T12:08:21.338Z,99939.34
2022-11-15T12:10:53.167Z,99938.44
2022-11-15T12:13:25.484Z,99942.81
2022-11-15T12:26:32.786Z,99921.03
2022-11-15T12:29:25.382Z,99925.22
2022-11-15T12:32:24.491Z,99911.31
2022-11-15T12:35:11.217Z,99915.50
2022-11-15T12:37:41.538Z,99919.75
2022-11-15T12:40:13.862Z,99909.34
2022-11-15T12:42:43.567Z,99896.81
2022-11-15T12:45:37.863Z,99898.12
2022-11-15T12:48:16.360Z,99895.69
2022-11-15T12:50:52.601Z,99886.19
2022-11-15T12:53:25.353Z,99880.13
2022-11-15T12:56:07.349Z,99893.47
2022-11-15T12:58:57.308Z,99893.22
2022-11-15T13:01:38.834Z,99893.44
2022-11-15T13:04:20.466Z,99891.00
2022-11-15T13:06:49.814Z,99893.44
2022-11-15T13:09:42.136Z,99893.97
2022-11-15T13:12:35.298Z,99900.78
2022-11-15T13:15:22.890Z,99897.62
2022-11-15T13:17:56.794Z,99896.13
2022-11-15T13:20:26.266Z,99887.13
2022-11-15T13:23:03.263Z,99879.81
2022-11-15T13:25:59.822Z,99871.75
2022-11-15T13:28:29.553Z,99865.06
2022-11-15T13:30:59.401Z,99863.16
2022-11-15T13:33:35.997Z,99865.31
2022-11-15T13:36:26.527Z,99859.19
2022-11-15T13:39:06.371Z,99853.72
2022-11-15T13:41:45.940Z,99843.41
2022-11-15T13:44:30.840Z,99832.78
2022-11-15T13:47:15.096Z,99844.47
2022-11-15T13:49:42.463Z,99851.34
2022-11-15T13:52:15.151Z,99858.13
2022-11-15T13:54:47.200Z,99847.47
2022-11-15T13:57:19.059Z,99840.37
2022-11-15T13:59:49.602Z,99835.47
2022-11-15T14:02:19.144Z,99835.78
2022-11-15T14:05:14.226Z,99828.91
2022-11-15T14:07:44.451Z,99832.75
2022-11-15T14:10:38.520Z,99830.03
2022-11-15T14:13:11.389Z,99825.59
2022-11-15T14:15:39.687Z,99821.47
2022-11-15T14:18:06.927Z,99823.56
2022-11-15T14:20:36.923Z,99813.28
2022-11-15T14:23:24.901Z,99825.81
2022-11-15T14:25:59.304Z,99818.37
2022-11-15T14:28:26.179Z,99811.84
2022-11-15T14:30:54.977Z,99799.28
2022-11-15T14:33:26.292Z,99801.22
2022-11-15T14:35:53.879Z,99790.06
2022-11-15T14:38:20.449Z,99788.41
2022-11-15T14:40:47.531Z,99794.09
2022-11-15T14:43:14.548Z,99788.16
2022-11-15T14:45:41.975Z,99787.97
2022-11-15T14:48:09.030Z,99792.88
2022-11-15T14:50:36.400Z,99786.25
2022-11-15T14:53:04.214Z,99787.59
2022-11-15T14:55:36.080Z,99779.53
2022-11-15T14:58:08.976Z,99780.19
2022-11-15T15:00:40.346Z,99766.56
2022-11-15T15:03:07.835Z,99771.53
2022-11-15T15:05:38.319Z,99782.78
2022-11-15T15:08:06.184Z,99776.41
2022-11-15T15:10:41.371Z,99776.22
2022-11-15T15:13:31.312Z,99778.88
2022-11-15T15:15:57.862Z,99770.22
2022-11-15T15:18:24.400Z,99770.16
2022-11-15T15:20:58.342Z,99769.97
2022-11-15T15:23:26.600Z,99767.56
2022-11-15T15:25:53.799Z,99764.31
2022-11-15T15:28:20.338Z,99778.56
2022-11-15T15:30:47.181Z,99774.97
2022-11-15T15:33:13.718Z,99778.16
2022-11-15T15:35:40.581Z,99778.81
2022-11-15T15:38:07.115Z,99781.34
2022-11-15T15:40:34.286Z,99784.62
2022-11-15T15:43:01.101Z,99779.41
2022-11-15T15:45:28.593Z,99776.38
2022-11-15T15:47:55.400Z,99769.56
2022-11-15T15:50:30.726Z,99763.41
2022-11-15T15:52:59.804Z,99763.84
2022-11-15T15:55:27.231Z,99761.34
2022-11-15T15:57:54.001Z,99760.09
2022-11-15T16:00:22.159Z,99760.34
2022-11-15T16:02:48.771Z,99757.81
2022-11-15T16:07:50.771Z,99758.25
2022-11-15T16:10:20.299Z,99756.78
2022-11-15T16:12:48.116Z,99753.75
2022-11-15T16:25:41.067Z,99751.47
2022-11-15T16:28:23.935Z,99751.16
2022-11-15T16:30:59.987Z,99753.47
2022-11-15T16:33:26.539Z,99746.59
2022-11-15T16:35:53.223Z,99743.91
2022-11-15T16:41:18.987Z,99742.50
2022-11-15T16:43:49.063Z,99737.97
2022-11-15T16:46:24.518Z,99729.44
2022-11-15T16:48:51.866Z,99722.88
2022-11-15T16:51:18.456Z,99731.72
2022-11-15T16:54:03.335Z,99726.41
2022-11-15T16:56:54.722Z,99731.53
2022-11-15T16:59:27.467Z,99732.47
2022-11-15T17:01:54.054Z,99733.28
2022-11-15T17:04:22.638Z,99723.59
2022-11-15T17:06:49.416Z,99726.34
2022-11-15T17:09:24.634Z,99723.81
2022-11-15T17:11:51.885Z,99724.94
2022-11-15T17:14:33.653Z,99723.28
2022-11-15T17:17:00.728Z,99721.13
2022-11-15T17:19:30.472Z,99716.53
2022-11-15T17:21:56.977Z,99715.25
2022-11-15T17:24:51.483Z,99714.31
2022-11-15T17:27:33.411Z,99713.59
2022-11-15T17:30:07.373Z,99712.69
2022-11-15T17:32:37.387Z,99704.53
2022-11-15T17:35:10.656Z,99705.50
2022-11-15T17:37:41.807Z,99698.97
2022-11-15T17:40:08.899Z,99695.16
2022-11-15T17:42:35.498Z,99693.69
2022-11-15T17:45:06.730Z,99692.56
2022-11-15T17:47:36.754Z,99681.66
2022-11-15T17:50:03.768Z,99679.66
2022-11-15T17:52:30.316Z,99675.56
2022-11-15T17:54:56.860Z,99663.78
2022-11-15T17:57:23.419Z,99661.41
2022-11-15T17:59:50.323Z,99668.72
2022-11-15T18:02:16.887Z,99664.34
2022-11-15T18:04:43.527Z,99662.34
2022-11-15T18:07:12.127Z,99658.25
2022-11-15T18:09:42.273Z,99666.28
2022-11-15T18:12:10.139Z,99660.59
2022-11-15T18:14:36.802Z,99661.41
2022-11-15T18:17:03.380Z,99650.16
2022-11-15T18:19:29.923Z,99648.22
2022-11-15T18:21:56.640Z,99655.91
2022-11-15T18:24:36.687Z,99650.91
2022-11-15T18:27:04.971Z,99648.84
2022-11-15T18:29:33.373Z,99646.38
2022-11-15T18:32:00.266Z,99639.31
2022-11-15T18:34:33.458Z,99645.03
2022-11-15T18:37:01.376Z,99651.09
2022-11-15T18:39:27.979Z,99642.47
2022-11-15T18:41:54.592Z,99644.75
2022-11-15T18:44:21.161Z,99634.94
2022-11-15T18:46:47.796Z,99638.13
2022-11-15T18:49:16.684Z,99639.88
2022-11-15T18:51:43.862Z,99637.91
2022-11-15T18:54:12.113Z,99630.88
2022-11-15T18:56:39.397Z,99628.97
2022-11-15T18:59:06.396Z,99630.19
2022-11-15T19:01:35.382Z,99629.88
2022-11-15T19:04:18.450Z,99622.31
2022-11-15T19:06:47.909Z,99620.47
2022-11-15T19:09:16.616Z,99627.50
2022-11-15T19:11:44.995Z,99617.06
2022-11-15T19:14:13.946Z,99617.06
2022-11-15T19:16:52.552Z,99615.69
2022-11-15T19:19:25.177Z,99607.59
2022-11-15T19:21:52.612Z,99605.41
2022-11-15T19:24:19.587Z,99592.91
2022-11-15T19:26:46.511Z,99603.44
2022-11-15T19:29:17.234Z,99594.09
2022-11-15T19:31:44.406Z,99597.97
2022-11-15T19:34:11.221Z,99599.34
2022-11-15T19:36:40.444Z,99591.03
2022-11-15T19:39:09.914Z,99592.72
2022-11-15T19:41:40.867Z,99586.62
2022-11-15T19:44:12.151Z,99587.97
2022-11-15T19:46:39.668Z,99587.63
2022-11-15T19:49:11.024Z,99583.81
2022-11-15T19:51:39.040Z,99576.13
2022-11-15T19:57:58.769Z,99573.97
2022-11-15T20:00:25.377Z,99563.56
2022-11-15T20:02:52.098Z,99560.91
2022-11-15T20:05:18.726Z,99556.91
2022-11-15T20:07:50.410Z,99560.06
2022-11-15T20:10:20.693Z,99548.75
2022-11-15T20:12:47.459Z,99549.84
2022-11-15T20:15:14.089Z,99546.28
2022-11-15T20:17:40.620Z,99540.44
2022-11-15T20:20:07.813Z,99549.00
2022-11-15T20:22:34.508Z,99542.94
2022-11-15T20:25:01.049Z,99549.03
2022-11-15T20:27:27.595Z,99543.22
2022-11-15T20:30:04.867Z,99536.41
2022-11-15T20:32:31.782Z,99537.59
2022-11-15T20:34:58.335Z,99542.88
2022-11-15T20:37:25.203Z,99544.19
2022-11-15T20:40:19.232Z,99531.78
2022-11-15T20:43:06.118Z,99527.44
2022-11-15T20:45:32.867Z,99530.03
2022-11-15T20:47:59.534Z,99531.25
2022-11-15T20:50:42.061Z,99526.22
2022-11-15T20:53:09.995Z,99527.25
2022-11-15T20:55:44.659Z,99519.47
2022-11-15T21:00:46.679Z,99521.09
2022-11-15T21:03:14.547Z,99521.69
2022-11-15T21:05:42.706Z,99515.94
2022-11-15T21:12:14.698Z,99508.34
2022-11-15T21:14:42.523Z,99503.00
2022-11-15T21:17:10.681Z,99497.81
2022-11-15T21:19:37.310Z,99502.75
2022-11-15T21:22:05.313Z,99492.97
2022-11-15T21:24:32.061Z,99488.88
2022-11-15T21:29:54.134Z,99479.00
2022-11-15T21:32:20.783Z,99477.88
2022-11-15T21:34:47.332Z,99467.06
2022-11-15T21:37:19.306Z,99464.75
2022-11-15T21:43:17.449Z,99469.56
2022-11-15T21:46:00.127Z,99470.84
2022-11-15T21:48:28.048Z,99469.66
2022-11-15T21:50:56.523Z,99467.91
2022-11-15T21:53:23.101Z,99470.19
2022-11-15T21:55:51.889Z,99467.87
2022-11-15T21:58:19.177Z,99467.34
2022-11-15T22:01:04.225Z,99463.62
2022-11-15T22:03:31.113Z,99470.88
2022-11-15T22:05:57.905Z,99475.72
2022-11-15T22:08:45.134Z,99476.31
2022-11-15T22:11:33.663Z,99475.87
2022-11-15T22:14:00.608Z,99473.69
2022-11-15T22:16:27.155Z,99466.19
2022-11-15T22:18:55.044Z,99453.66
2022-11-15T22:21:22.059Z,99453.50
2022-11-15T22:23:48.833Z,99443.78
2022-11-15T22:29:03.765Z,99442.47
2022-11-15T22:31:30.445Z,99434.56
2022-11-15T22:33:57.048Z,99438.34
2022-11-15T22:36:26.226Z,99435.28
2022-11-15T22:38:56.957Z,99428.84
2022-11-15T22:41:45.414Z,99428.09
2022-11-15T22:47:32.450Z,99412.75
2022-11-15T22:49:59.074Z,99419.66
2022-11-15T22:55:00.935Z,99415.03
2022-11-15T22:57:27.589Z,99413.81
2022-11-15T23:02:36.435Z,99400.16
2022-11-15T23:05:03.841Z,99401.38
2022-11-15T23:07:30.953Z,99404.06
2022-11-15T23:10:17.562Z,99396.38
2022-11-15T23:13:02.703Z,99395.25
2022-11-15T23:18:21.711Z,99383.56
2022-11-15T23:44:58.401Z,99354.44
